sensor_id;sensor_type;location;lat;lon;timestamp;P1;durP1;ratioP1;P2;durP2;ratioP2
21822;SDS011;11074;48.596;9.238;2022-09-09T00:04:31;3.72;;;1.13;;
21822;SDS011;11074;48.596;9.238;2022-09-09T00:07:20;3.35;;;1.08;;
21822;SDS011;11074;48.596;9.238;2022-09-09T00:10:29;2.55;;;1.10;;
21822;SDS011;11074;48.596;9.238;2022-09-09T00:18:30;6.47;;;1.30;;
21822;SDS011;11074;48.596;9.238;2022-09-09T00:21:33;2.88;;;1.10;;
21822;SDS011;11074;48.596;9.238;2022-09-09T00:24:10;6.40;;;1.33;;
21822;SDS011;11074;48.596;9.238;2022-09-09T00:26:53;4.20;;;1.02;;
21822;SDS011;11074;48.596;9.238;2022-09-09T00:32:16;3.90;;;1.13;;
21822;SDS011;11074;48.596;9.238;2022-09-09T00:34:58;3.85;;;1.00;;
21822;SDS011;11074;48.596;9.238;2022-09-09T00:37:37;3.10;;;0.90;;
21822;SDS011;11074;48.596;9.238;2022-09-09T00:40:11;5.00;;;1.00;;
21822;SDS011;11074;48.596;9.238;2022-09-09T00:43:26;3.65;;;1.17;;
21822;SDS011;11074;48.596;9.238;2022-09-09T00:46:01;3.42;;;1.38;;
21822;SDS011;11074;48.596;9.238;2022-09-09T00:57:33;4.18;;;1.00;;
21822;SDS011;11074;48.596;9.238;2022-09-09T01:05:25;4.28;;;0.90;;
21822;SDS011;11074;48.596;9.238;2022-09-09T01:11:25;4.47;;;0.90;;
21822;SDS011;11074;48.596;9.238;2022-09-09T01:17:04;3.63;;;1.20;;
21822;SDS011;11074;48.596;9.238;2022-09-09T01:22:11;2.67;;;0.98;;
21822;SDS011;11074;48.596;9.238;2022-09-09T01:27:59;4.88;;;1.02;;
21822;SDS011;11074;48.596;9.238;2022-09-09T01:30:30;4.90;;;1.35;;
21822;SDS011;11074;48.596;9.238;2022-09-09T01:32:57;3.95;;;1.25;;
21822;SDS011;11074;48.596;9.238;2022-09-09T01:35:31;4.82;;;1.23;;
21822;SDS011;11074;48.596;9.238;2022-09-09T01:38:10;6.65;;;1.15;;
21822;SDS011;11074;48.596;9.238;2022-09-09T01:40:36;3.50;;;1.23;;
21822;SDS011;11074;48.596;9.238;2022-09-09T01:43:02;4.78;;;1.20;;
21822;SDS011;11074;48.596;9.238;2022-09-09T01:45:29;7.13;;;1.70;;
21822;SDS011;11074;48.596;9.238;2022-09-09T01:47:56;4.50;;;1.33;;
21822;SDS011;11074;48.596;9.238;2022-09-09T01:50:22;4.78;;;1.17;;
21822;SDS011;11074;48.596;9.238;2022-09-09T01:52:49;4.38;;;1.10;;
21822;SDS011;11074;48.596;9.238;2022-09-09T01:55:23;1.67;;;0.93;;
21822;SDS011;11074;48.596;9.238;2022-09-09T02:01:05;5.68;;;1.10;;
21822;SDS011;11074;48.596;9.238;2022-09-09T02:07:00;4.20;;;1.00;;
21822;SDS011;11074;48.596;9.238;2022-09-09T02:09:26;7.25;;;1.20;;
21822;SDS011;11074;48.596;9.238;2022-09-09T02:12:08;2.97;;;0.90;;
21822;SDS011;11074;48.596;9.238;2022-09-09T02:14:43;2.03;;;0.98;;
21822;SDS011;11074;48.596;9.238;2022-09-09T02:17:19;4.70;;;1.02;;
21822;SDS011;11074;48.596;9.238;2022-09-09T02:19:59;3.85;;;0.95;;
21822;SDS011;11074;48.596;9.238;2022-09-09T02:22:37;4.55;;;1.08;;
21822;SDS011;11074;48.596;9.238;2022-09-09T02:25:09;3.00;;;1.20;;
21822;SDS011;11074;48.596;9.238;2022-09-09T02:27:40;3.10;;;0.95;;
21822;SDS011;11074;48.596;9.238;2022-09-09T02:30:09;3.38;;;1.17;;
21822;SDS011;11074;48.596;9.238;2022-09-09T02:32:37;2.90;;;0.95;;
21822;SDS011;11074;48.596;9.238;2022-09-09T02:35:09;3.90;;;1.10;;
21822;SDS011;11074;48.596;9.238;2022-09-09T02:37:39;2.10;;;1.00;;
21822;SDS011;11074;48.596;9.238;2022-09-09T02:40:10;4.25;;;1.13;;
21822;SDS011;11074;48.596;9.238;2022-09-09T02:42:40;2.90;;;1.00;;
21822;SDS011;11074;48.596;9.238;2022-09-09T02:45:09;4.03;;;1.30;;
21822;SDS011;11074;48.596;9.238;2022-09-09T02:47:38;3.97;;;1.30;;
21822;SDS011;11074;48.596;9.238;2022-09-09T02:50:20;2.95;;;1.00;;
21822;SDS011;11074;48.596;9.238;2022-09-09T02:53:11;2.33;;;1.02;;
21822;SDS011;11074;48.596;9.238;2022-09-09T02:55:54;4.85;;;1.30;;
21822;SDS011;11074;48.596;9.238;2022-09-09T02:58:38;4.82;;;1.20;;
21822;SDS011;11074;48.596;9.238;2022-09-09T03:01:04;3.10;;;1.17;;
21822;SDS011;11074;48.596;9.238;2022-09-09T03:03:30;2.50;;;1.23;;
21822;SDS011;11074;48.596;9.238;2022-09-09T03:05:57;2.63;;;1.10;;
21822;SDS011;11074;48.596;9.238;2022-09-09T03:08:23;5.75;;;1.35;;
21822;SDS011;11074;48.596;9.238;2022-09-09T03:10:48;3.88;;;1.20;;
21822;SDS011;11074;48.596;9.238;2022-09-09T03:13:14;4.78;;;1.00;;
21822;SDS011;11074;48.596;9.238;2022-09-09T03:15:40;7.07;;;1.48;;
21822;SDS011;11074;48.596;9.238;2022-09-09T03:18:06;6.60;;;1.30;;
21822;SDS011;11074;48.596;9.238;2022-09-09T03:20:32;2.80;;;1.05;;
21822;SDS011;11074;48.596;9.238;2022-09-09T03:22:59;7.10;;;1.35;;
21822;SDS011;11074;48.596;9.238;2022-09-09T03:25:25;4.68;;;1.13;;
21822;SDS011;11074;48.596;9.238;2022-09-09T03:27:52;4.35;;;1.10;;
21822;SDS011;11074;48.596;9.238;2022-09-09T03:30:23;2.95;;;1.13;;
21822;SDS011;11074;48.596;9.238;2022-09-09T03:32:51;3.03;;;1.20;;
21822;SDS011;11074;48.596;9.238;2022-09-09T03:35:17;2.80;;;1.20;;
21822;SDS011;11074;48.596;9.238;2022-09-09T03:37:44;3.55;;;1.30;;
21822;SDS011;11074;48.596;9.238;2022-09-09T03:40:10;2.05;;;1.00;;
21822;SDS011;11074;48.596;9.238;2022-09-09T03:42:36;3.25;;;1.20;;
21822;SDS011;11074;48.596;9.238;2022-09-09T03:45:04;3.47;;;1.30;;
21822;SDS011;11074;48.596;9.238;2022-09-09T03:47:34;5.32;;;1.13;;
21822;SDS011;11074;48.596;9.238;2022-09-09T03:49:59;4.65;;;1.13;;
21822;SDS011;11074;48.596;9.238;2022-09-09T03:52:25;3.55;;;1.17;;
21822;SDS011;11074;48.596;9.238;2022-09-09T03:54:51;4.38;;;1.17;;
21822;SDS011;11074;48.596;9.238;2022-09-09T03:57:18;5.72;;;1.13;;
21822;SDS011;11074;48.596;9.238;2022-09-09T03:59:45;3.53;;;1.42;;
21822;SDS011;11074;48.596;9.238;2022-09-09T04:02:10;6.82;;;1.13;;
21822;SDS011;11074;48.596;9.238;2022-09-09T04:04:36;6.25;;;1.38;;
21822;SDS011;11074;48.596;9.238;2022-09-09T04:07:02;7.13;;;1.33;;
21822;SDS011;11074;48.596;9.238;2022-09-09T04:09:31;4.05;;;1.52;;
21822;SDS011;11074;48.596;9.238;2022-09-09T04:11:56;4.47;;;1.05;;
21822;SDS011;11074;48.596;9.238;2022-09-09T04:14:22;5.53;;;1.42;;
21822;SDS011;11074;48.596;9.238;2022-09-09T04:16:48;5.72;;;1.15;;
21822;SDS011;11074;48.596;9.238;2022-09-09T04:19:13;5.18;;;1.15;;
21822;SDS011;11074;48.596;9.238;2022-09-09T04:21:40;3.55;;;1.00;;
21822;SDS011;11074;48.596;9.238;2022-09-09T04:24:09;6.70;;;1.00;;
21822;SDS011;11074;48.596;9.238;2022-09-09T04:26:35;2.85;;;1.10;;
21822;SDS011;11074;48.596;9.238;2022-09-09T04:29:02;2.85;;;1.10;;
21822;SDS011;11074;48.596;9.238;2022-09-09T04:31:29;2.90;;;1.02;;
21822;SDS011;11074;48.596;9.238;2022-09-09T04:33:55;4.43;;;1.08;;
21822;SDS011;11074;48.596;9.238;2022-09-09T04:36:21;3.50;;;1.20;;
21822;SDS011;11074;48.596;9.238;2022-09-09T04:38:47;4.82;;;1.38;;
21822;SDS011;11074;48.596;9.238;2022-09-09T04:41:14;2.63;;;1.33;;
21822;SDS011;11074;48.596;9.238;2022-09-09T04:43:41;2.25;;;0.85;;
21822;SDS011;11074;48.596;9.238;2022-09-09T04:46:07;4.90;;;1.13;;
21822;SDS011;11074;48.596;9.238;2022-09-09T04:48:33;4.22;;;1.15;;
21822;SDS011;11074;48.596;9.238;2022-09-09T04:51:08;3.85;;;1.52;;
21822;SDS011;11074;48.596;9.238;2022-09-09T04:53:36;2.03;;;1.00;;
21822;SDS011;11074;48.596;9.238;2022-09-09T04:56:10;4.30;;;1.17;;
21822;SDS011;11074;48.596;9.238;2022-09-09T04:58:40;1.83;;;0.98;;
21822;SDS011;11074;48.596;9.238;2022-09-09T05:01:10;3.70;;;1.13;;
21822;SDS011;11074;48.596;9.238;2022-09-09T05:03:42;3.30;;;1.20;;
21822;SDS011;11074;48.596;9.238;2022-09-09T05:06:11;3.92;;;1.17;;
21822;SDS011;11074;48.596;9.238;2022-09-09T05:08:43;3.58;;;1.10;;
21822;SDS011;11074;48.596;9.238;2022-09-09T05:11:16;8.10;;;1.63;;
21822;SDS011;11074;48.596;9.238;2022-09-09T05:13:49;4.07;;;1.10;;
21822;SDS011;11074;48.596;9.238;2022-09-09T05:16:16;2.97;;;1.40;;
21822;SDS011;11074;48.596;9.238;2022-09-09T05:18:43;1.67;;;1.10;;
21822;SDS011;11074;48.596;9.238;2022-09-09T05:21:10;4.43;;;1.27;;
21822;SDS011;11074;48.596;9.238;2022-09-09T05:23:37;4.90;;;1.25;;
21822;SDS011;11074;48.596;9.238;2022-09-09T05:26:03;3.75;;;1.27;;
21822;SDS011;11074;48.596;9.238;2022-09-09T05:28:30;1.55;;;1.10;;
21822;SDS011;11074;48.596;9.238;2022-09-09T05:31:00;4.55;;;1.52;;
21822;SDS011;11074;48.596;9.238;2022-09-09T05:33:29;4.50;;;1.33;;
21822;SDS011;11074;48.596;9.238;2022-09-09T05:36:18;6.32;;;1.40;;
21822;SDS011;11074;48.596;9.238;2022-09-09T05:38:45;3.17;;;1.08;;
21822;SDS011;11074;48.596;9.238;2022-09-09T05:41:12;2.50;;;1.13;;
21822;SDS011;11074;48.596;9.238;2022-09-09T05:43:40;4.13;;;1.13;;
21822;SDS011;11074;48.596;9.238;2022-09-09T05:46:13;4.40;;;1.20;;
21822;SDS011;11074;48.596;9.238;2022-09-09T05:48:43;2.28;;;1.35;;
21822;SDS011;11074;48.596;9.238;2022-09-09T05:51:16;3.47;;;1.60;;
21822;SDS011;11074;48.596;9.238;2022-09-09T05:53:54;5.13;;;1.50;;
21822;SDS011;11074;48.596;9.238;2022-09-09T05:56:24;4.20;;;1.60;;
21822;SDS011;11074;48.596;9.238;2022-09-09T05:58:52;3.60;;;1.30;;
21822;SDS011;11074;48.596;9.238;2022-09-09T06:01:20;2.85;;;1.40;;
21822;SDS011;11074;48.596;9.238;2022-09-09T06:03:49;3.45;;;1.27;;
21822;SDS011;11074;48.596;9.238;2022-09-09T06:06:17;3.92;;;1.40;;
21822;SDS011;11074;48.596;9.238;2022-09-09T06:08:51;5.40;;;1.48;;
21822;SDS011;11074;48.596;9.238;2022-09-09T06:11:21;4.10;;;1.35;;
21822;SDS011;11074;48.596;9.238;2022-09-09T06:13:49;3.67;;;1.30;;
21822;SDS011;11074;48.596;9.238;2022-09-09T06:16:20;4.47;;;1.40;;
21822;SDS011;11074;48.596;9.238;2022-09-09T06:18:48;2.22;;;1.10;;
21822;SDS011;11074;48.596;9.238;2022-09-09T06:21:19;7.30;;;1.45;;
21822;SDS011;11074;48.596;9.238;2022-09-09T06:23:48;3.33;;;1.33;;
21822;SDS011;11074;48.596;9.238;2022-09-09T06:26:17;5.13;;;1.17;;
21822;SDS011;11074;48.596;9.238;2022-09-09T06:28:49;4.22;;;1.48;;
21822;SDS011;11074;48.596;9.238;2022-09-09T06:31:18;5.78;;;1.40;;
21822;SDS011;11074;48.596;9.238;2022-09-09T06:33:47;5.18;;;1.20;;
21822;SDS011;11074;48.596;9.238;2022-09-09T06:36:21;3.25;;;1.20;;
21822;SDS011;11074;48.596;9.238;2022-09-09T06:38:49;4.28;;;1.05;;
21822;SDS011;11074;48.596;9.238;2022-09-09T06:41:17;4.72;;;1.23;;
21822;SDS011;11074;48.596;9.238;2022-09-09T06:43:47;2.85;;;1.58;;
21822;SDS011;11074;48.596;9.238;2022-09-09T06:46:20;6.93;;;1.67;;
21822;SDS011;11074;48.596;9.238;2022-09-09T06:48:48;4.30;;;1.80;;
21822;SDS011;11074;48.596;9.238;2022-09-09T06:51:18;2.15;;;1.10;;
21822;SDS011;11074;48.596;9.238;2022-09-09T06:53:47;7.30;;;1.40;;
21822;SDS011;11074;48.596;9.238;2022-09-09T06:58:52;4.05;;;1.30;;
21822;SDS011;11074;48.596;9.238;2022-09-09T07:01:24;4.38;;;1.00;;
21822;SDS011;11074;48.596;9.238;2022-09-09T07:03:54;4.97;;;1.35;;
21822;SDS011;11074;48.596;9.238;2022-09-09T07:06:24;2.38;;;1.05;;
21822;SDS011;11074;48.596;9.238;2022-09-09T07:08:54;2.53;;;1.08;;
21822;SDS011;11074;48.596;9.238;2022-09-09T07:11:24;2.47;;;1.20;;
21822;SDS011;11074;48.596;9.238;2022-09-09T07:13:53;3.15;;;1.08;;
21822;SDS011;11074;48.596;9.238;2022-09-09T07:16:20;5.18;;;1.30;;
21822;SDS011;11074;48.596;9.238;2022-09-09T07:18:50;4.78;;;1.20;;
21822;SDS011;11074;48.596;9.238;2022-09-09T07:21:17;3.03;;;1.30;;
21822;SDS011;11074;48.596;9.238;2022-09-09T07:23:45;3.47;;;1.10;;
21822;SDS011;11074;48.596;9.238;2022-09-09T07:26:13;3.03;;;1.30;;
21822;SDS011;11074;48.596;9.238;2022-09-09T07:28:41;3.03;;;1.15;;
21822;SDS011;11074;48.596;9.238;2022-09-09T07:31:14;2.63;;;0.98;;
21822;SDS011;11074;48.596;9.238;2022-09-09T07:33:47;2.80;;;1.10;;
21822;SDS011;11074;48.596;9.238;2022-09-09T07:36:17;5.07;;;1.00;;
21822;SDS011;11074;48.596;9.238;2022-09-09T07:38:50;3.00;;;1.08;;
21822;SDS011;11074;48.596;9.238;2022-09-09T07:41:23;2.83;;;1.00;;
21822;SDS011;11074;48.596;9.238;2022-09-09T07:43:53;2.60;;;1.10;;
21822;SDS011;11074;48.596;9.238;2022-09-09T07:46:19;2.90;;;1.05;;
21822;SDS011;11074;48.596;9.238;2022-09-09T07:48:48;4.05;;;1.30;;
21822;SDS011;11074;48.596;9.238;2022-09-09T07:51:17;5.00;;;1.23;;
21822;SDS011;11074;48.596;9.238;2022-09-09T07:53:47;6.35;;;1.17;;
21822;SDS011;11074;48.596;9.238;2022-09-09T07:56:18;3.53;;;1.10;;
21822;SDS011;11074;48.596;9.238;2022-09-09T07:58:48;5.22;;;1.08;;
21822;SDS011;11074;48.596;9.238;2022-09-09T08:01:19;5.18;;;1.13;;
21822;SDS011;11074;48.596;9.238;2022-09-09T08:03:56;2.90;;;0.98;;
21822;SDS011;11074;48.596;9.238;2022-09-09T08:06:29;2.70;;;0.95;;
21822;SDS011;11074;48.596;9.238;2022-09-09T08:08:59;2.47;;;0.80;;
21822;SDS011;11074;48.596;9.238;2022-09-09T08:11:26;5.15;;;1.10;;
21822;SDS011;11074;48.596;9.238;2022-09-09T08:13:54;3.03;;;0.90;;
21822;SDS011;11074;48.596;9.238;2022-09-09T08:16:25;2.95;;;1.00;;
21822;SDS011;11074;48.596;9.238;2022-09-09T08:18:55;2.85;;;1.00;;
21822;SDS011;11074;48.596;9.238;2022-09-09T08:21:22;4.65;;;1.10;;
21822;SDS011;11074;48.596;9.238;2022-09-09T08:23:54;4.93;;;1.10;;
21822;SDS011;11074;48.596;9.238;2022-09-09T08:26:23;4.15;;;1.15;;
21822;SDS011;11074;48.596;9.238;2022-09-09T08:28:53;5.70;;;1.13;;
21822;SDS011;11074;48.596;9.238;2022-09-09T08:31:22;5.03;;;1.00;;
21822;SDS011;11074;48.596;9.238;2022-09-09T08:33:59;2.55;;;0.80;;
21822;SDS011;11074;48.596;9.238;2022-09-09T08:36:27;3.83;;;1.00;;
21822;SDS011;11074;48.596;9.238;2022-09-09T08:38:56;4.35;;;1.00;;
21822;SDS011;11074;48.596;9.238;2022-09-09T08:50:39;2.42;;;0.90;;
21822;SDS011;11074;48.596;9.238;2022-09-09T08:58:23;3.05;;;1.00;;
21822;SDS011;11074;48.596;9.238;2022-09-09T09:01:14;3.70;;;0.95;;
21822;SDS011;11074;48.596;9.238;2022-09-09T09:04:10;6.53;;;1.02;;
21822;SDS011;11074;48.596;9.238;2022-09-09T09:07:28;3.30;;;1.00;;
21822;SDS011;11074;48.596;9.238;2022-09-09T09:10:37;4.38;;;0.80;;
21822;SDS011;11074;48.596;9.238;2022-09-09T09:13:07;3.00;;;1.00;;
21822;SDS011;11074;48.596;9.238;2022-09-09T09:15:46;4.07;;;1.13;;
21822;SDS011;11074;48.596;9.238;2022-09-09T09:18:21;3.90;;;1.30;;
21822;SDS011;11074;48.596;9.238;2022-09-09T09:23:45;5.15;;;1.10;;
21822;SDS011;11074;48.596;9.238;2022-09-09T09:26:21;3.58;;;0.80;;
21822;SDS011;11074;48.596;9.238;2022-09-09T09:28:55;4.82;;;1.00;;
21822;SDS011;11074;48.596;9.238;2022-09-09T09:31:24;4.10;;;1.02;;
21822;SDS011;11074;48.596;9.238;2022-09-09T09:33:52;3.78;;;1.00;;
21822;SDS011;11074;48.596;9.238;2022-09-09T09:36:23;3.95;;;0.98;;
21822;SDS011;11074;48.596;9.238;2022-09-09T09:39:00;4.60;;;0.80;;
21822;SDS011;11074;48.596;9.238;2022-09-09T09:41:31;4.80;;;1.25;;
21822;SDS011;11074;48.596;9.238;2022-09-09T09:44:00;4.93;;;0.90;;
21822;SDS011;11074;48.596;9.238;2022-09-09T09:46:28;4.68;;;0.90;;
21822;SDS011;11074;48.596;9.238;2022-09-09T09:49:00;4.28;;;0.90;;
21822;SDS011;11074;48.596;9.238;2022-09-09T09:51:34;4.50;;;0.85;;
21822;SDS011;11074;48.596;9.238;2022-09-09T09:56:48;2.28;;;0.93;;
21822;SDS011;11074;48.596;9.238;2022-09-09T09:59:33;3.47;;;0.80;;
21822;SDS011;11074;48.596;9.238;2022-09-09T10:04:38;4.57;;;0.90;;
21822;SDS011;11074;48.596;9.238;2022-09-09T10:07:15;4.05;;;0.80;;
21822;SDS011;11074;48.596;9.238;2022-09-09T10:09:49;3.53;;;0.70;;
21822;SDS011;11074;48.596;9.238;2022-09-09T10:12:38;3.33;;;0.80;;
21822;SDS011;11074;48.596;9.238;2022-09-09T10:34:40;5.07;;;1.00;;
21822;SDS011;11074;48.596;9.238;2022-09-09T10:43:39;2.83;;;0.70;;
21822;SDS011;11074;48.596;9.238;2022-09-09T10:49:24;3.70;;;0.90;;
21822;SDS011;11074;48.596;9.238;2022-09-09T10:52:22;3.45;;;0.75;;
21822;SDS011;11074;48.596;9.238;2022-09-09T10:55:39;2.90;;;0.70;;
21822;SDS011;11074;48.596;9.238;2022-09-09T10:58:10;3.10;;;0.60;;
21822;SDS011;11074;48.596;9.238;2022-09-09T11:00:51;3.85;;;0.73;;
21822;SDS011;11074;48.596;9.238;2022-09-09T11:03:24;2.55;;;0.73;;
21822;SDS011;11074;48.596;9.238;2022-09-09T11:08:40;4.10;;;0.93;;
21822;SDS011;11074;48.596;9.238;2022-09-09T11:11:25;2.63;;;0.70;;
21822;SDS011;11074;48.596;9.238;2022-09-09T11:14:21;1.48;;;0.63;;
21822;SDS011;11074;48.596;9.238;2022-09-09T11:17:16;1.80;;;0.80;;
21822;SDS011;11074;48.596;9.238;2022-09-09T11:19:49;2.60;;;0.60;;
21822;SDS011;11074;48.596;9.238;2022-09-09T11:22:30;2.60;;;0.85;;
21822;SDS011;11074;48.596;9.238;2022-09-09T11:28:18;1.58;;;0.50;;
21822;SDS011;11074;48.596;9.238;2022-09-09T11:34:12;4.75;;;0.93;;
21822;SDS011;11074;48.596;9.238;2022-09-09T11:43:00;5.20;;;0.80;;
21822;SDS011;11074;48.596;9.238;2022-09-09T11:45:30;4.28;;;0.85;;
21822;SDS011;11074;48.596;9.238;2022-09-09T11:48:00;2.83;;;0.70;;
21822;SDS011;11074;48.596;9.238;2022-09-09T11:50:29;3.40;;;0.60;;
21822;SDS011;11074;48.596;9.238;2022-09-09T11:55:39;0.82;;;0.43;;
21822;SDS011;11074;48.596;9.238;2022-09-09T11:58:05;1.92;;;0.47;;
21822;SDS011;11074;48.596;9.238;2022-09-09T12:00:44;2.75;;;0.50;;
21822;SDS011;11074;48.596;9.238;2022-09-09T12:08:53;1.98;;;0.43;;
21822;SDS011;11074;48.596;9.238;2022-09-09T12:11:33;2.03;;;0.30;;
21822;SDS011;11074;48.596;9.238;2022-09-09T12:13:59;1.75;;;0.55;;
21822;SDS011;11074;48.596;9.238;2022-09-09T12:19:19;0.70;;;0.40;;
21822;SDS011;11074;48.596;9.238;2022-09-09T12:24:43;1.10;;;0.28;;
21822;SDS011;11074;48.596;9.238;2022-09-09T12:27:30;3.17;;;0.60;;
21822;SDS011;11074;48.596;9.238;2022-09-09T12:30:08;2.65;;;0.65;;
21822;SDS011;11074;48.596;9.238;2022-09-09T12:32:39;2.30;;;0.50;;
21822;SDS011;11074;48.596;9.238;2022-09-09T12:35:12;0.85;;;0.20;;
21822;SDS011;11074;48.596;9.238;2022-09-09T12:40:39;1.13;;;0.32;;
21822;SDS011;11074;48.596;9.238;2022-09-09T12:43:19;4.10;;;0.70;;
21822;SDS011;11074;48.596;9.238;2022-09-09T12:45:48;7.07;;;0.60;;
21822;SDS011;11074;48.596;9.238;2022-09-09T12:48:22;2.35;;;0.47;;
21822;SDS011;11074;48.596;9.238;2022-09-09T12:50:56;1.77;;;0.57;;
21822;SDS011;11074;48.596;9.238;2022-09-09T12:53:23;2.67;;;0.40;;
21822;SDS011;11074;48.596;9.238;2022-09-09T12:56:04;1.85;;;0.50;;
21822;SDS011;11074;48.596;9.238;2022-09-09T12:58:35;3.72;;;0.60;;
21822;SDS011;11074;48.596;9.238;2022-09-09T13:01:03;3.83;;;0.50;;
21822;SDS011;11074;48.596;9.238;2022-09-09T13:03:31;1.95;;;0.77;;
21822;SDS011;11074;48.596;9.238;2022-09-09T13:06:11;2.70;;;0.60;;
21822;SDS011;11074;48.596;9.238;2022-09-09T13:08:47;4.25;;;0.75;;
21822;SDS011;11074;48.596;9.238;2022-09-09T13:11:23;3.13;;;0.63;;
21822;SDS011;11074;48.596;9.238;2022-09-09T13:14:00;2.28;;;0.60;;
21822;SDS011;11074;48.596;9.238;2022-09-09T13:16:29;2.20;;;0.50;;
21822;SDS011;11074;48.596;9.238;2022-09-09T13:19:02;3.10;;;0.77;;
21822;SDS011;11074;48.596;9.238;2022-09-09T13:21:38;3.25;;;0.70;;
21822;SDS011;11074;48.596;9.238;2022-09-09T13:24:57;4.10;;;0.60;;
21822;SDS011;11074;48.596;9.238;2022-09-09T13:27:01;1.95;;;0.40;;
21822;SDS011;11074;48.596;9.238;2022-09-09T13:29:53;2.60;;;0.60;;
21822;SDS011;11074;48.596;9.238;2022-09-09T13:32:20;2.10;;;0.55;;
21822;SDS011;11074;48.596;9.238;2022-09-09T13:35:00;1.85;;;0.50;;
21822;SDS011;11074;48.596;9.238;2022-09-09T13:37:33;4.53;;;0.73;;
21822;SDS011;11074;48.596;9.238;2022-09-09T13:40:06;3.00;;;0.60;;
21822;SDS011;11074;48.596;9.238;2022-09-09T13:42:43;2.70;;;0.60;;
21822;SDS011;11074;48.596;9.238;2022-09-09T13:45:20;4.50;;;0.57;;
21822;SDS011;11074;48.596;9.238;2022-09-09T13:47:51;2.50;;;0.80;;
21822;SDS011;11074;48.596;9.238;2022-09-09T13:50:29;2.35;;;0.55;;
21822;SDS011;11074;48.596;9.238;2022-09-09T13:52:56;3.65;;;0.50;;
21822;SDS011;11074;48.596;9.238;2022-09-09T13:55:25;2.97;;;0.55;;
21822;SDS011;11074;48.596;9.238;2022-09-09T13:57:56;4.05;;;0.60;;
21822;SDS011;11074;48.596;9.238;2022-09-09T14:00:31;2.38;;;0.68;;
21822;SDS011;11074;48.596;9.238;2022-09-09T14:02:59;2.33;;;0.40;;
21822;SDS011;11074;48.596;9.238;2022-09-09T14:05:27;2.65;;;0.57;;
21822;SDS011;11074;48.596;9.238;2022-09-09T14:07:55;2.70;;;0.77;;
21822;SDS011;11074;48.596;9.238;2022-09-09T14:10:20;2.50;;;0.60;;
21822;SDS011;11074;48.596;9.238;2022-09-09T14:12:47;3.58;;;0.75;;
21822;SDS011;11074;48.596;9.238;2022-09-09T14:15:12;2.50;;;0.45;;
21822;SDS011;11074;48.596;9.238;2022-09-09T14:17:39;1.55;;;0.40;;
21822;SDS011;11074;48.596;9.238;2022-09-09T14:20:05;1.85;;;0.40;;
21822;SDS011;11074;48.596;9.238;2022-09-09T14:22:34;3.25;;;0.60;;
21822;SDS011;11074;48.596;9.238;2022-09-09T14:25:01;3.60;;;0.50;;
21822;SDS011;11074;48.596;9.238;2022-09-09T14:27:28;1.95;;;0.40;;
21822;SDS011;11074;48.596;9.238;2022-09-09T14:29:55;3.00;;;0.50;;
21822;SDS011;11074;48.596;9.238;2022-09-09T14:32:21;2.50;;;0.52;;
21822;SDS011;11074;48.596;9.238;2022-09-09T14:34:47;2.40;;;0.60;;
21822;SDS011;11074;48.596;9.238;2022-09-09T14:37:16;3.33;;;0.68;;
21822;SDS011;11074;48.596;9.238;2022-09-09T14:39:43;1.63;;;0.47;;
21822;SDS011;11074;48.596;9.238;2022-09-09T14:42:09;4.00;;;0.50;;
21822;SDS011;11074;48.596;9.238;2022-09-09T14:44:36;3.30;;;0.40;;
21822;SDS011;11074;48.596;9.238;2022-09-09T14:47:05;2.17;;;0.60;;
21822;SDS011;11074;48.596;9.238;2022-09-09T14:49:35;1.67;;;0.40;;
21822;SDS011;11074;48.596;9.238;2022-09-09T14:52:02;2.85;;;0.68;;
21822;SDS011;11074;48.596;9.238;2022-09-09T14:54:29;5.57;;;0.60;;
21822;SDS011;11074;48.596;9.238;2022-09-09T14:56:56;1.75;;;0.45;;
21822;SDS011;11074;48.596;9.238;2022-09-09T14:59:23;0.85;;;0.40;;
21822;SDS011;11074;48.596;9.238;2022-09-09T15:01:49;1.80;;;0.50;;
21822;SDS011;11074;48.596;9.238;2022-09-09T15:04:15;1.50;;;0.47;;
21822;SDS011;11074;48.596;9.238;2022-09-09T15:06:41;3.58;;;0.55;;
21822;SDS011;11074;48.596;9.238;2022-09-09T15:09:09;2.22;;;0.45;;
21822;SDS011;11074;48.596;9.238;2022-09-09T15:11:36;1.85;;;0.40;;
21822;SDS011;11074;48.596;9.238;2022-09-09T15:14:02;1.25;;;0.47;;
21822;SDS011;11074;48.596;9.238;2022-09-09T15:16:30;2.95;;;0.63;;
21822;SDS011;11074;48.596;9.238;2022-09-09T15:19:00;2.53;;;0.60;;
21822;SDS011;11074;48.596;9.238;2022-09-09T15:21:31;3.17;;;0.40;;
21822;SDS011;11074;48.596;9.238;2022-09-09T15:24:00;2.80;;;0.50;;
21822;SDS011;11074;48.596;9.238;2022-09-09T15:26:26;5.03;;;0.63;;
21822;SDS011;11074;48.596;9.238;2022-09-09T15:28:52;1.80;;;0.60;;
21822;SDS011;11074;48.596;9.238;2022-09-09T15:31:22;1.80;;;0.40;;
21822;SDS011;11074;48.596;9.238;2022-09-09T15:33:57;4.20;;;0.75;;
21822;SDS011;11074;48.596;9.238;2022-09-09T15:36:27;3.08;;;0.40;;
21822;SDS011;11074;48.596;9.238;2022-09-09T15:39:00;1.88;;;0.30;;
21822;SDS011;11074;48.596;9.238;2022-09-09T15:41:29;3.60;;;0.55;;
21822;SDS011;11074;48.596;9.238;2022-09-09T15:43:58;1.38;;;0.50;;
21822;SDS011;11074;48.596;9.238;2022-09-09T15:51:37;2.42;;;0.50;;
21822;SDS011;11074;48.596;9.238;2022-09-09T15:54:09;3.10;;;0.35;;
21822;SDS011;11074;48.596;9.238;2022-09-09T15:56:38;4.53;;;0.50;;
21822;SDS011;11074;48.596;9.238;2022-09-09T15:59:05;3.13;;;0.50;;
21822;SDS011;11074;48.596;9.238;2022-09-09T16:01:32;2.50;;;0.50;;
21822;SDS011;11074;48.596;9.238;2022-09-09T16:03:59;3.67;;;0.88;;
21822;SDS011;11074;48.596;9.238;2022-09-09T16:06:25;1.63;;;0.47;;
21822;SDS011;11074;48.596;9.238;2022-09-09T16:08:53;2.05;;;0.57;;
21822;SDS011;11074;48.596;9.238;2022-09-09T16:13:48;1.67;;;0.43;;
21822;SDS011;11074;48.596;9.238;2022-09-09T16:16:17;3.45;;;0.45;;
21822;SDS011;11074;48.596;9.238;2022-09-09T16:18:47;3.55;;;0.50;;
21822;SDS011;11074;48.596;9.238;2022-09-09T16:21:21;1.15;;;0.32;;
21822;SDS011;11074;48.596;9.238;2022-09-09T16:24:00;1.80;;;0.30;;
21822;SDS011;11074;48.596;9.238;2022-09-09T16:26:29;3.20;;;0.50;;
21822;SDS011;11074;48.596;9.238;2022-09-09T16:28:57;1.02;;;0.20;;
21822;SDS011;11074;48.596;9.238;2022-09-09T16:31:26;1.27;;;0.43;;
21822;SDS011;11074;48.596;9.238;2022-09-09T16:33:53;1.80;;;0.30;;
21822;SDS011;11074;48.596;9.238;2022-09-09T16:36:20;1.80;;;0.50;;
21822;SDS011;11074;48.596;9.238;2022-09-09T16:38:52;1.15;;;0.40;;
21822;SDS011;11074;48.596;9.238;2022-09-09T16:41:27;1.30;;;0.40;;
21822;SDS011;11074;48.596;9.238;2022-09-09T16:43:55;1.20;;;0.28;;
21822;SDS011;11074;48.596;9.238;2022-09-09T16:46:24;2.58;;;0.50;;
21822;SDS011;11074;48.596;9.238;2022-09-09T16:48:52;1.08;;;0.30;;
21822;SDS011;11074;48.596;9.238;2022-09-09T16:51:24;3.15;;;0.40;;
21822;SDS011;11074;48.596;9.238;2022-09-09T16:54:06;1.50;;;0.30;;
21822;SDS011;11074;48.596;9.238;2022-09-09T16:56:35;2.83;;;0.50;;
21822;SDS011;11074;48.596;9.238;2022-09-09T16:59:07;1.40;;;0.30;;
21822;SDS011;11074;48.596;9.238;2022-09-09T17:01:42;3.83;;;0.60;;
21822;SDS011;11074;48.596;9.238;2022-09-09T17:04:14;1.25;;;0.40;;
21822;SDS011;11074;48.596;9.238;2022-09-09T17:06:48;1.40;;;0.50;;
21822;SDS011;11074;48.596;9.238;2022-09-09T17:09:17;1.23;;;0.35;;
21822;SDS011;11074;48.596;9.238;2022-09-09T17:11:44;3.75;;;0.32;;
21822;SDS011;11074;48.596;9.238;2022-09-09T17:14:13;1.95;;;0.50;;
21822;SDS011;11074;48.596;9.238;2022-09-09T17:16:42;0.47;;;0.35;;
21822;SDS011;11074;48.596;9.238;2022-09-09T17:19:09;1.30;;;0.32;;
21822;SDS011;11074;48.596;9.238;2022-09-09T17:21:36;2.13;;;0.38;;
21822;SDS011;11074;48.596;9.238;2022-09-09T17:24:02;1.13;;;0.30;;
21822;SDS011;11074;48.596;9.238;2022-09-09T17:26:30;1.83;;;0.47;;
21822;SDS011;11074;48.596;9.238;2022-09-09T17:29:00;1.30;;;0.38;;
21822;SDS011;11074;48.596;9.238;2022-09-09T17:31:28;1.15;;;0.30;;
21822;SDS011;11074;48.596;9.238;2022-09-09T17:33:55;1.50;;;0.40;;